LDPLLDRI

Guest
Details From LDPL - Pula
To LDRI - RIJEKA
Flight Number -
Tags generated
Created
Modified
Stats Distance 34 nm / 63 km
Max Altitude 0 ft / 0 m
Waypoints 3
Social Downloads 3
Likes 0
Share VATSIM

Download

Looking for another format? Having issues loading an existing format? Contact us
Advertisement - Login to hide

Notes

Basic altitude profile: - Ascent Rate: 2500ft/min - Ascent Speed: 250kts - Cruise Altitude: 35000ft - Cruise Speed: 420kts - Descent Rate: 1500ft/min - Descent Speed: 250kts Options: - Use NATs: yes - Use PACOTS: yes - Use low airways: yes - Use high airways: yes

Route

LDPL PUL LDRI

ID Type Via Altitude Latitude Longitude Leg Dist Tot Dist Heading (true) Name
O LDPL APT - 0 ft / 0 m 44.89353˚ 13.92216˚ - 0 nm - Pula
PUL VOR - 0 ft / 0 m 44.89237˚ 13.91813˚ 0 nm 0 nm 248° / 248° PULA VOR-DME
O LDRI APT - 0 ft / 0 m 45.21663˚ 14.57081˚ 33 nm 34 nm 55° / 55° RIJEKA

Altitude Profile

Advertisement - Login to hide

LDPL

Details ICAO LDPL (PUY)
Name Pula
Region Croatia
Timezone Europe/Zagreb (UTC+2.0)
Stats Elevation 274 ft / 84 m (AMSL)
Location 44.893531° 13.922156°
Runways 1
Magnetic Variation 3.522° E

METAR

LDPL 210730Z 07015KT CAVOK 23/10 Q1014 NOSIG

Decode

TAF

TAF LDPL 210525Z 2106/2206 06015KT CAVOK TX24/2113Z TN18/2203Z BECMG 2111/2113 06008KT PROB30 TEMPO 2203/2206 TSRA FEW010 FEW030CB

Decode

Departure Runways

ID Width Length Bearing (true) Bearing (mag) Surface Threshold Offset Overrun Length
09 148 ft / 45 m 9,601 ft / 2,926 m 88.24° 84.72° Asphalt 250 ft / 76 m 0 ft / 0 m
27 148 ft / 45 m 9,601 ft / 2,926 m 268.27° 264.75° Asphalt 250 ft / 76 m 0 ft / 0 m

LDRI

Details ICAO LDRI (RJK)
Name RIJEKA
Region Croatia
Timezone Europe/Zagreb (UTC+2.0)
Stats Elevation 278 ft / 85 m (AMSL)
Location 45.216635° 14.570813°
Runways 1
Magnetic Variation 3.671° E

METAR

LDRI 210730Z 23007KT CAVOK 22/10 Q1015

Decode

TAF

TAF LDRI 210525Z 2106/2206 07006KT CAVOK TX24/2113Z TN18/2203Z TEMPO 2106/2112 06015KT

Decode

Destination Runways

ID Width Length Bearing (true) Bearing (mag) Surface Threshold Offset Overrun Length
14 148 ft / 45 m 8,161 ft / 2,488 m 143.77° 140.10° Asphalt 0 ft / 0 m 0 ft / 0 m
32 148 ft / 45 m 8,161 ft / 2,488 m 323.78° 320.11° Asphalt 0 ft / 0 m 0 ft / 0 m

Approach Navaids

Runway Type Ident Frequency Range Bearing (true) Bearing (mag) Slope Elevation
14 Localiser IKR 108.50 MHz 25 nm / 46 km 143.68° 140.01° - 200 ft / 61 m (AMSL)
14 Glidescope IKR 108.50 MHz 25 nm / 46 km 143.68° 140.01° 3.00° 259 ft / 79 m (AMSL)